createdAt,value
2022-08-27T00:01:23.219Z,18.00
2022-08-27T00:03:50.288Z,18.00
2022-08-27T00:06:19.321Z,17.99
2022-08-27T00:08:47.561Z,18.01
2022-08-27T00:11:16.817Z,17.98
2022-08-27T00:13:46.369Z,18.02
2022-08-27T00:16:15.576Z,18.02
2022-08-27T00:18:43.937Z,18.03
2022-08-27T00:21:16.132Z,18.07
2022-08-27T00:23:42.701Z,18.07
2022-08-27T00:26:10.568Z,18.09
2022-08-27T00:28:37.520Z,18.10
2022-08-27T00:31:04.118Z,18.11
2022-08-27T00:33:35.699Z,18.09
2022-08-27T00:36:03.436Z,18.13
2022-08-27T00:38:32.449Z,18.15
2022-08-27T00:41:01.171Z,18.15
2022-08-27T00:43:34.939Z,18.17
2022-08-27T00:46:22.959Z,18.14
2022-08-27T00:48:53.026Z,18.19
2022-08-27T00:51:21.511Z,18.21
2022-08-27T00:53:50.079Z,18.20
2022-08-27T00:56:21.570Z,18.17
2022-08-27T00:58:51.923Z,18.16
2022-08-27T01:01:24.512Z,18.17
2022-08-27T01:03:55.198Z,18.17
2022-08-27T01:06:24.127Z,18.12
2022-08-27T01:08:54.533Z,18.17
2022-08-27T01:11:21.426Z,18.17
2022-08-27T01:14:00.030Z,18.20
2022-08-27T01:16:37.203Z,18.17
2022-08-27T01:19:08.103Z,18.11
2022-08-27T01:21:55.705Z,18.12
2022-08-27T01:24:30.444Z,18.09
2022-08-27T01:26:59.501Z,18.08
2022-08-27T01:29:26.846Z,18.05
2022-08-27T01:31:59.971Z,18.02
2022-08-27T01:34:31.002Z,18.00
2022-08-27T01:36:57.657Z,17.96
2022-08-27T01:39:26.842Z,17.91
2022-08-27T01:41:54.414Z,17.89
2022-08-27T01:44:21.114Z,17.85
2022-08-27T01:46:48.015Z,17.84
2022-08-27T01:49:14.653Z,17.80
2022-08-27T01:51:41.793Z,17.68
2022-08-27T01:54:08.341Z,17.72
2022-08-27T01:56:34.889Z,17.69
2022-08-27T01:59:01.471Z,17.68
2022-08-27T02:01:28.210Z,17.66
2022-08-27T02:03:55.772Z,17.65
2022-08-27T02:06:24.675Z,17.57
2022-08-27T02:08:51.205Z,17.59
2022-08-27T02:11:19.879Z,17.54
2022-08-27T02:13:49.250Z,17.55
2022-08-27T02:16:16.285Z,17.53
2022-08-27T02:18:42.926Z,17.52
2022-08-27T02:21:09.535Z,17.18
2022-08-27T02:23:36.469Z,17.50
2022-08-27T02:26:02.996Z,17.47
2022-08-27T02:28:29.547Z,17.46
2022-08-27T02:30:56.194Z,17.44
2022-08-27T02:33:22.856Z,17.42
2022-08-27T02:35:51.702Z,17.36
2022-08-27T02:38:18.414Z,17.38
2022-08-27T02:40:47.495Z,17.31
2022-08-27T02:43:14.179Z,17.31
2022-08-27T02:45:42.964Z,17.31
2022-08-27T02:48:12.208Z,17.31
2022-08-27T02:50:39.183Z,17.18
2022-08-27T02:53:06.540Z,17.27
2022-08-27T02:55:33.397Z,17.28
2022-08-27T02:57:59.915Z,17.23
2022-08-27T03:00:28.971Z,17.18
2022-08-27T03:02:56.501Z,17.21
2022-08-27T03:05:23.827Z,17.20
2022-08-27T03:07:50.853Z,17.22
2022-08-27T03:10:20.132Z,17.07
2022-08-27T03:12:47.329Z,17.25
2022-08-27T03:15:19.215Z,17.24
2022-08-27T03:18:04.506Z,17.24
2022-08-27T03:20:31.394Z,17.22
2022-08-27T03:22:58.264Z,17.19
2022-08-27T03:25:25.625Z,17.22
2022-08-27T03:27:54.511Z,17.24
2022-08-27T03:30:23.150Z,17.25
2022-08-27T03:32:55.665Z,17.23
2022-08-27T03:35:24.812Z,17.21
2022-08-27T03:37:51.688Z,17.25
2022-08-27T03:40:19.742Z,17.25
2022-08-27T03:42:46.433Z,17.25
2022-08-27T03:45:13.080Z,17.28
2022-08-27T03:47:42.990Z,17.25
2022-08-27T03:50:11.222Z,17.28
2022-08-27T03:52:40.387Z,17.30
2022-08-27T03:55:08.621Z,17.31
2022-08-27T03:57:36.014Z,17.35
2022-08-27T04:00:02.941Z,17.30
2022-08-27T04:02:29.625Z,17.18
2022-08-27T04:04:57.783Z,17.32
2022-08-27T04:07:24.386Z,17.29
2022-08-27T04:09:50.920Z,17.27
2022-08-27T04:12:17.529Z,17.28
2022-08-27T04:14:44.097Z,17.28
2022-08-27T04:17:13.105Z,17.24
2022-08-27T04:19:39.659Z,17.19
2022-08-27T04:22:07.934Z,17.19
2022-08-27T04:24:36.536Z,17.17
2022-08-27T04:27:04.537Z,17.18
2022-08-27T04:29:31.637Z,17.18
2022-08-27T04:31:59.326Z,17.16
2022-08-27T04:34:28.342Z,17.16
2022-08-27T04:36:56.724Z,17.15
2022-08-27T04:39:25.791Z,17.17
2022-08-27T04:41:58.571Z,17.17
2022-08-27T04:44:31.034Z,17.17
2022-08-27T04:47:01.534Z,17.15
2022-08-27T04:49:29.026Z,17.18
2022-08-27T04:51:57.844Z,17.14
2022-08-27T04:54:32.313Z,17.23
2022-08-27T04:56:59.792Z,17.22
2022-08-27T04:59:26.545Z,17.23
2022-08-27T05:01:55.579Z,17.29
2022-08-27T05:04:22.213Z,17.31
2022-08-27T05:06:50.542Z,17.31
2022-08-27T05:09:21.222Z,17.29
2022-08-27T05:11:52.679Z,17.24
2022-08-27T05:14:20.418Z,17.25
2022-08-27T05:16:47.649Z,17.27
2022-08-27T05:19:14.802Z,17.30
2022-08-27T05:21:46.994Z,17.34
2022-08-27T05:24:14.243Z,17.36
2022-08-27T05:26:40.926Z,17.40
2022-08-27T05:29:10.538Z,17.43
2022-08-27T05:31:39.106Z,17.47
2022-08-27T05:34:10.457Z,17.50
2022-08-27T05:36:48.995Z,17.54
2022-08-27T05:39:16.934Z,17.52
2022-08-27T05:41:43.710Z,17.50
2022-08-27T05:46:57.030Z,17.56
2022-08-27T05:49:23.584Z,17.61
2022-08-27T05:51:50.518Z,17.63
2022-08-27T05:54:19.628Z,17.60
2022-08-27T05:56:47.734Z,17.68
2022-08-27T05:59:34.581Z,17.72
2022-08-27T06:02:02.536Z,17.74
2022-08-27T06:04:29.290Z,17.83
2022-08-27T06:06:58.296Z,17.90
2022-08-27T06:09:28.898Z,18.00
2022-08-27T06:12:02.627Z,18.12
2022-08-27T06:14:30.393Z,18.16
2022-08-27T06:16:57.040Z,18.26
2022-08-27T06:19:24.386Z,18.33
2022-08-27T06:22:00.314Z,18.44
2022-08-27T06:24:39.522Z,18.49
2022-08-27T06:27:06.397Z,18.69
2022-08-27T06:29:35.195Z,18.87
2022-08-27T06:32:01.956Z,19.09
2022-08-27T06:34:28.516Z,19.29
2022-08-27T06:36:55.090Z,19.44
2022-08-27T06:39:23.922Z,19.41
2022-08-27T06:41:50.737Z,19.99
2022-08-27T06:44:17.598Z,20.51
2022-08-27T06:46:44.669Z,20.92
2022-08-27T06:49:13.715Z,20.75
2022-08-27T06:51:45.737Z,21.37
2022-08-27T06:54:14.024Z,23.87
2022-08-27T06:56:42.773Z,25.29
2022-08-27T06:59:16.082Z,26.61
2022-08-27T07:01:46.073Z,27.34
2022-08-27T07:04:17.993Z,27.95
2022-08-27T07:06:44.828Z,28.79
2022-08-27T07:09:12.160Z,28.98
2022-08-27T07:11:38.765Z,29.04
2022-08-27T07:14:06.768Z,28.86
2022-08-27T07:16:33.861Z,28.44
2022-08-27T07:19:05.465Z,29.08
2022-08-27T07:21:33.833Z,28.97
2022-08-27T07:24:04.682Z,29.00
2022-08-27T07:26:36.251Z,28.85
2022-08-27T07:29:05.207Z,29.09
2022-08-27T07:31:35.553Z,29.41
2022-08-27T07:34:08.204Z,28.77
2022-08-27T07:36:35.481Z,29.17
2022-08-27T07:39:02.268Z,29.88
2022-08-27T07:41:53.543Z,30.11
2022-08-27T07:44:31.037Z,29.47
2022-08-27T07:47:01.700Z,29.93
2022-08-27T07:49:29.229Z,29.88
2022-08-27T07:51:55.867Z,30.51
2022-08-27T07:54:23.208Z,30.73
2022-08-27T07:56:55.917Z,30.50
2022-08-27T07:59:27.425Z,28.49
2022-08-27T08:01:56.213Z,26.69
2022-08-27T08:04:23.413Z,25.84
2022-08-27T08:06:51.018Z,26.47
2022-08-27T08:09:17.654Z,26.49
2022-08-27T08:11:46.565Z,25.90
2022-08-27T08:14:15.331Z,25.66
2022-08-27T08:16:41.992Z,25.62
2022-08-27T08:19:09.439Z,26.11
2022-08-27T08:21:36.451Z,25.98
2022-08-27T08:24:03.466Z,26.05
2022-08-27T08:26:32.460Z,25.78
2022-08-27T08:29:00.758Z,26.30
2022-08-27T08:31:27.480Z,25.53
2022-08-27T08:33:54.877Z,24.79
2022-08-27T08:36:21.484Z,24.49
2022-08-27T08:38:48.338Z,24.10
2022-08-27T08:41:51.565Z,23.67
2022-08-27T08:44:43.873Z,23.39
2022-08-27T08:47:16.760Z,23.32
2022-08-27T08:49:52.165Z,23.72
2022-08-27T08:52:48.401Z,23.60
2022-08-27T08:55:37.155Z,23.60
2022-08-27T08:58:13.097Z,23.75
2022-08-27T09:00:43.879Z,23.58
2022-08-27T09:03:16.148Z,23.45
2022-08-27T09:05:53.659Z,23.26
2022-08-27T09:08:35.203Z,23.36
2022-08-27T09:11:09.006Z,25.40
2022-08-27T09:13:44.715Z,25.90
2022-08-27T09:16:11.480Z,26.08
2022-08-27T09:18:40.820Z,26.06
2022-08-27T09:21:33.928Z,26.46
2022-08-27T09:24:12.346Z,26.24
2022-08-27T09:26:42.876Z,25.99
2022-08-27T09:29:15.915Z,26.15
2022-08-27T09:32:00.564Z,25.75
2022-08-27T09:34:39.955Z,25.76
2022-08-27T09:37:08.776Z,25.08
2022-08-27T09:39:48.753Z,25.40
2022-08-27T09:42:44.466Z,25.07
2022-08-27T09:45:29.732Z,24.36
2022-08-27T09:48:10.217Z,24.16
2022-08-27T09:50:46.602Z,24.74
2022-08-27T09:53:28.910Z,24.26
2022-08-27T09:55:58.969Z,23.77
2022-08-27T09:58:31.943Z,23.51
2022-08-27T10:01:26.471Z,23.54
2022-08-27T10:04:13.622Z,23.55
2022-08-27T10:06:52.278Z,23.48
2022-08-27T10:09:36.164Z,23.34
2022-08-27T10:12:14.229Z,23.33
2022-08-27T10:14:47.409Z,23.44
2022-08-27T10:17:32.619Z,23.77
2022-08-27T10:20:29.606Z,23.82
2022-08-27T10:23:26.775Z,23.88
2022-08-27T10:26:24.997Z,23.70
2022-08-27T10:29:35.784Z,23.74
2022-08-27T10:32:05.543Z,23.92
2022-08-27T10:34:57.042Z,24.11
2022-08-27T10:37:40.593Z,24.37
2022-08-27T10:40:08.447Z,24.37
2022-08-27T10:42:58.038Z,24.23
2022-08-27T10:45:43.177Z,24.19
2022-08-27T10:48:29.289Z,24.27
2022-08-27T10:51:19.538Z,24.38
2022-08-27T10:54:05.988Z,24.40
2022-08-27T10:57:24.536Z,24.62
2022-08-27T10:59:56.063Z,24.64
2022-08-27T11:02:28.531Z,24.52
2022-08-27T11:05:01.333Z,24.43
2022-08-27T11:07:38.336Z,24.58
2022-08-27T11:10:21.545Z,24.44
2022-08-27T11:12:53.332Z,24.31
2022-08-27T11:15:29.037Z,24.26
2022-08-27T11:18:08.102Z,24.42
2022-08-27T11:20:58.458Z,24.63
2022-08-27T11:23:58.455Z,25.06
2022-08-27T11:26:25.401Z,25.09
2022-08-27T11:28:59.749Z,24.87
2022-08-27T11:31:48.466Z,24.70
2022-08-27T11:34:35.353Z,25.07
2022-08-27T11:37:21.749Z,24.91
2022-08-27T11:40:21.837Z,25.06
2022-08-27T11:43:01.848Z,25.20
2022-08-27T11:45:34.889Z,24.76
2022-08-27T11:48:14.849Z,24.58
2022-08-27T11:50:41.550Z,24.53
2022-08-27T11:53:08.729Z,24.75
2022-08-27T11:55:38.662Z,24.72
2022-08-27T11:58:24.528Z,24.72
2022-08-27T12:00:55.273Z,24.70
2022-08-27T12:03:21.825Z,24.91
2022-08-27T12:05:54.561Z,24.80
2022-08-27T12:08:24.098Z,24.72
2022-08-27T12:11:09.604Z,24.72
2022-08-27T12:13:53.680Z,24.92
2022-08-27T12:16:41.903Z,24.68
2022-08-27T12:19:16.105Z,24.63
2022-08-27T12:21:48.735Z,24.60
2022-08-27T12:24:31.485Z,24.64
2022-08-27T12:27:34.635Z,24.85
2022-08-27T12:30:22.147Z,24.79
2022-08-27T12:32:54.412Z,24.79
2022-08-27T12:35:28.719Z,24.82
2022-08-27T12:38:32.338Z,24.84
2022-08-27T12:41:09.157Z,24.82
2022-08-27T12:43:43.491Z,24.77
2022-08-27T12:46:19.341Z,24.66
2022-08-27T12:48:57.048Z,24.66
2022-08-27T12:51:32.007Z,24.66
2022-08-27T12:54:24.559Z,24.49
2022-08-27T12:57:07.213Z,24.42
2022-08-27T13:00:02.450Z,24.45
2022-08-27T13:03:01.294Z,24.56
2022-08-27T13:05:41.111Z,24.48
2022-08-27T13:08:23.502Z,24.48
2022-08-27T13:10:50.951Z,24.60
2022-08-27T13:13:20.051Z,24.70
2022-08-27T13:15:51.157Z,24.61
2022-08-27T13:18:18.461Z,24.75
2022-08-27T13:20:52.603Z,24.69
2022-08-27T13:23:24.385Z,24.69
2022-08-27T13:26:21.707Z,24.69
2022-08-27T13:28:49.646Z,24.72
2022-08-27T13:31:16.999Z,24.64
2022-08-27T13:33:46.930Z,24.64
2022-08-27T13:36:14.878Z,24.63
2022-08-27T13:38:49.924Z,24.74
2022-08-27T13:41:29.261Z,24.82
2022-08-27T13:43:59.356Z,24.84
2022-08-27T13:46:30.960Z,24.86
2022-08-27T13:48:59.181Z,24.71
2022-08-27T13:51:37.339Z,24.68
2022-08-27T13:54:13.357Z,24.69
2022-08-27T13:57:03.871Z,24.66
2022-08-27T13:59:31.313Z,24.49
2022-08-27T14:02:10.345Z,24.53
2022-08-27T14:04:40.951Z,24.45
2022-08-27T14:07:17.485Z,24.42
2022-08-27T14:09:54.383Z,24.39
2022-08-27T14:12:35.504Z,24.37
2022-08-27T14:15:23.284Z,24.31
2022-08-27T14:17:50.733Z,24.36
2022-08-27T14:20:19.600Z,24.23
2022-08-27T14:22:47.115Z,24.16
2022-08-27T14:25:17.580Z,24.15
2022-08-27T14:27:54.275Z,24.16
2022-08-27T14:30:29.642Z,24.16
2022-08-27T14:33:00.698Z,24.26
2022-08-27T14:35:29.775Z,24.21
2022-08-27T14:37:57.791Z,24.13
2022-08-27T14:40:24.416Z,23.98
2022-08-27T14:42:51.661Z,23.92
2022-08-27T14:45:18.636Z,23.97
2022-08-27T14:47:45.640Z,23.94
2022-08-27T14:50:15.723Z,23.93
2022-08-27T14:52:42.455Z,23.85
2022-08-27T14:55:11.034Z,23.80
2022-08-27T14:57:38.543Z,23.86
2022-08-27T15:00:08.098Z,23.97
2022-08-27T15:02:35.452Z,23.89
2022-08-27T15:05:07.908Z,23.98
2022-08-27T15:07:38.875Z,23.99
2022-08-27T15:10:08.681Z,24.02
2022-08-27T15:12:35.678Z,23.84
2022-08-27T15:15:03.679Z,23.79
2022-08-27T15:17:35.217Z,23.86
2022-08-27T15:20:13.710Z,23.83
2022-08-27T15:22:48.476Z,23.74
2022-08-27T15:25:18.604Z,23.74
2022-08-27T15:27:45.167Z,23.82
2022-08-27T15:30:14.223Z,23.95
2022-08-27T15:32:44.174Z,24.05
2022-08-27T15:35:14.503Z,24.08
2022-08-27T15:37:42.533Z,24.00
2022-08-27T15:40:10.990Z,23.94
2022-08-27T15:42:37.671Z,23.98
2022-08-27T15:45:06.833Z,23.98
2022-08-27T15:47:33.801Z,23.94
2022-08-27T15:50:00.687Z,23.86
2022-08-27T15:52:40.490Z,23.85
2022-08-27T15:55:21.232Z,23.74
2022-08-27T15:57:47.891Z,23.66
2022-08-27T16:00:16.495Z,23.60
2022-08-27T16:02:44.810Z,23.54
2022-08-27T16:05:12.788Z,23.49
2022-08-27T16:07:39.679Z,23.44
2022-08-27T16:10:07.197Z,23.43
2022-08-27T16:12:33.736Z,23.39
2022-08-27T16:15:00.959Z,23.37
2022-08-27T16:17:27.868Z,23.30
2022-08-27T16:19:54.639Z,23.25
2022-08-27T16:22:21.252Z,23.16
2022-08-27T16:24:50.914Z,23.14
2022-08-27T16:27:17.446Z,23.12
2022-08-27T16:29:46.515Z,23.10
2022-08-27T16:32:17.237Z,23.05
2022-08-27T16:34:55.735Z,23.06
2022-08-27T16:37:24.241Z,23.01
2022-08-27T16:39:51.267Z,22.96
2022-08-27T16:42:17.922Z,22.91
2022-08-27T16:44:46.948Z,22.88
2022-08-27T16:47:13.822Z,22.77
2022-08-27T16:49:58.653Z,22.81
2022-08-27T16:52:25.362Z,22.79
2022-08-27T16:54:52.135Z,22.76
2022-08-27T16:57:19.238Z,22.72
2022-08-27T16:59:46.045Z,22.74
2022-08-27T17:02:35.054Z,22.74
2022-08-27T17:05:30.657Z,22.72
2022-08-27T17:07:51.007Z,22.70
2022-08-27T17:10:18.954Z,22.67
2022-08-27T17:12:48.556Z,22.61
2022-08-27T17:15:18.724Z,22.60
2022-08-27T17:17:50.123Z,22.57
2022-08-27T17:20:17.024Z,22.48
2022-08-27T17:22:43.697Z,22.46
2022-08-27T17:25:11.019Z,22.41
2022-08-27T17:27:37.619Z,22.37
2022-08-27T17:30:05.267Z,22.31
2022-08-27T17:32:37.334Z,22.21
2022-08-27T17:35:10.618Z,22.23
2022-08-27T17:37:38.217Z,22.17
2022-08-27T17:40:06.159Z,22.14
2022-08-27T17:42:33.065Z,22.07
2022-08-27T17:45:00.125Z,22.07
2022-08-27T17:47:26.956Z,21.88
2022-08-27T17:49:56.339Z,22.02
2022-08-27T17:52:25.429Z,21.97
2022-08-27T17:54:54.306Z,21.89
2022-08-27T17:57:27.327Z,21.85
2022-08-27T17:59:55.552Z,21.76
2022-08-27T18:02:32.980Z,21.75
2022-08-27T18:04:59.923Z,21.67
2022-08-27T18:07:26.730Z,21.60
2022-08-27T18:09:53.482Z,21.59
2022-08-27T18:12:24.082Z,21.51
2022-08-27T18:14:58.883Z,21.44
2022-08-27T18:17:25.404Z,21.39
2022-08-27T18:19:54.329Z,21.27
2022-08-27T18:22:24.658Z,21.26
2022-08-27T18:24:53.764Z,21.18
2022-08-27T18:27:28.847Z,21.16
2022-08-27T18:29:56.663Z,21.10
2022-08-27T18:32:23.702Z,21.02
2022-08-27T18:34:51.325Z,20.98
2022-08-27T18:37:18.612Z,20.99
2022-08-27T18:39:45.149Z,20.96
2022-08-27T18:42:12.816Z,20.92
2022-08-27T18:44:42.982Z,20.90
2022-08-27T18:47:09.563Z,20.87
2022-08-27T18:49:36.162Z,20.84
2022-08-27T18:52:03.023Z,20.80
2022-08-27T18:54:29.696Z,20.80
2022-08-27T18:56:56.287Z,20.77
2022-08-27T18:59:25.746Z,20.75
2022-08-27T19:01:54.071Z,20.69
2022-08-27T19:04:21.216Z,20.72
2022-08-27T19:06:47.807Z,20.69
2022-08-27T19:09:15.325Z,20.58
2022-08-27T19:11:42.513Z,20.59
2022-08-27T19:14:09.262Z,20.59
2022-08-27T19:16:47.926Z,20.59
2022-08-27T19:19:17.875Z,20.57
2022-08-27T19:21:49.242Z,20.55
2022-08-27T19:24:19.228Z,20.52
2022-08-27T19:26:48.042Z,20.52
2022-08-27T19:29:14.743Z,20.48
2022-08-27T19:31:41.365Z,20.47
2022-08-27T19:34:08.875Z,20.44
2022-08-27T19:36:41.774Z,20.40
2022-08-27T19:39:11.717Z,20.42
2022-08-27T19:41:38.488Z,20.41
2022-08-27T19:44:07.550Z,20.37
2022-08-27T19:46:36.791Z,20.30
2022-08-27T19:49:04.184Z,20.31
2022-08-27T19:51:33.284Z,20.25
2022-08-27T19:54:02.122Z,20.22
2022-08-27T19:56:28.956Z,20.25
2022-08-27T19:58:59.850Z,20.25
2022-08-27T20:01:30.182Z,20.23
2022-08-27T20:03:58.829Z,20.21
2022-08-27T20:06:29.668Z,20.20
2022-08-27T20:08:56.167Z,20.15
2022-08-27T20:11:23.056Z,20.15
2022-08-27T20:13:50.605Z,20.11
2022-08-27T20:16:17.502Z,19.99
2022-08-27T20:18:44.778Z,20.02
2022-08-27T20:21:11.439Z,19.97
2022-08-27T20:23:40.242Z,19.91
2022-08-27T20:26:06.901Z,19.89
2022-08-27T20:28:39.478Z,19.80
2022-08-27T20:31:06.987Z,19.75
2022-08-27T20:33:34.172Z,19.78
2022-08-27T20:36:01.546Z,19.75
2022-08-27T20:38:30.639Z,19.73
2022-08-27T20:40:57.413Z,19.68
2022-08-27T20:43:23.999Z,19.60
2022-08-27T20:45:55.471Z,19.56
2022-08-27T20:48:22.421Z,19.52
2022-08-27T20:50:49.199Z,19.47
2022-08-27T20:53:16.126Z,19.51
2022-08-27T20:55:43.036Z,19.51
2022-08-27T20:58:28.416Z,19.49
2022-08-27T21:00:58.422Z,19.39
2022-08-27T21:03:25.292Z,19.38
2022-08-27T21:05:52.611Z,19.36
2022-08-27T21:08:20.173Z,19.32
2022-08-27T21:10:51.414Z,19.27
2022-08-27T21:13:19.845Z,19.27
2022-08-27T21:15:46.986Z,19.25
2022-08-27T21:18:13.951Z,19.20
2022-08-27T21:20:41.026Z,19.19
2022-08-27T21:23:07.829Z,19.16
2022-08-27T21:25:37.693Z,19.13
2022-08-27T21:28:07.464Z,19.12
2022-08-27T21:30:37.493Z,19.10
2022-08-27T21:33:04.512Z,19.06
2022-08-27T21:35:32.845Z,19.00
2022-08-27T21:38:04.627Z,19.00
2022-08-27T21:40:33.657Z,18.93
2022-08-27T21:43:01.889Z,18.87
2022-08-27T21:45:28.599Z,18.76
2022-08-27T21:47:55.439Z,18.74
2022-08-27T21:50:23.471Z,18.64
2022-08-27T21:52:50.542Z,18.57
2022-08-27T21:55:18.262Z,18.44
2022-08-27T21:57:44.947Z,18.40
2022-08-27T22:00:28.313Z,18.31
2022-08-27T22:02:56.359Z,18.22
2022-08-27T22:05:23.560Z,18.12
2022-08-27T22:07:50.139Z,17.99
2022-08-27T22:10:24.018Z,18.01
2022-08-27T22:12:53.796Z,17.90
2022-08-27T22:15:25.706Z,17.89
2022-08-27T22:17:52.581Z,17.84
2022-08-27T22:20:19.564Z,17.77
2022-08-27T22:22:46.237Z,17.73
2022-08-27T22:25:13.174Z,17.68
2022-08-27T22:27:39.742Z,17.62
2022-08-27T22:30:11.032Z,17.55
2022-08-27T22:32:44.216Z,17.49
2022-08-27T22:35:13.304Z,17.47
2022-08-27T22:37:40.088Z,17.43
2022-08-27T22:40:19.188Z,17.38
2022-08-27T22:42:46.211Z,17.32
2022-08-27T22:45:15.296Z,17.26
2022-08-27T22:47:44.070Z,17.21
2022-08-27T22:50:11.198Z,17.15
2022-08-27T22:52:40.251Z,17.10
2022-08-27T22:55:07.379Z,16.93
2022-08-27T22:57:34.839Z,17.02
2022-08-27T23:00:04.817Z,16.99
2022-08-27T23:02:31.450Z,16.91
2022-08-27T23:04:58.019Z,16.92
2022-08-27T23:07:24.752Z,16.74
2022-08-27T23:09:53.849Z,16.85
2022-08-27T23:12:20.612Z,16.79
2022-08-27T23:14:47.251Z,16.78
2022-08-27T23:17:14.571Z,16.73
2022-08-27T23:19:44.067Z,16.69
2022-08-27T23:22:11.161Z,16.63
2022-08-27T23:24:57.888Z,16.56
2022-08-27T23:27:30.503Z,16.57
2022-08-27T23:30:01.907Z,16.55
2022-08-27T23:32:28.869Z,16.52
2022-08-27T23:34:56.348Z,16.48
2022-08-27T23:37:26.152Z,16.44
2022-08-27T23:39:53.406Z,16.41
2022-08-27T23:42:22.121Z,16.37
2022-08-27T23:44:49.264Z,16.33
2022-08-27T23:47:17.653Z,16.27
2022-08-27T23:49:44.821Z,16.21
2022-08-27T23:52:12.707Z,16.20
2022-08-27T23:54:41.095Z,16.20
2022-08-27T23:57:07.852Z,16.18
2022-08-27T23:59:35.201Z,16.21
